sensor_id;sensor_type;location;lat;lon;timestamp;pressure;altitude;pressure_sealevel;temperature;humidity
38267;BME280;24063;51.794;19.578;2023-02-10T00:00:14;99929.47;;;-2.97;75.11
38267;BME280;24063;51.794;19.578;2023-02-10T00:01:36;99931.42;;;-2.97;75.14
38267;BME280;24063;51.794;19.578;2023-02-10T00:02:37;99932.14;;;-2.98;75.39
38267;BME280;24063;51.794;19.578;2023-02-10T00:03:38;99931.37;;;-2.99;75.22
38267;BME280;24063;51.794;19.578;2023-02-10T00:04:39;99928.41;;;-3.01;75.19
38267;BME280;24063;51.794;19.578;2023-02-10T00:05:39;99927.78;;;-3.02;75.51
38267;BME280;24063;51.794;19.578;2023-02-10T00:06:41;99921.94;;;-3.01;75.72
38267;BME280;24063;51.794;19.578;2023-02-10T00:07:41;99915.85;;;-3.02;75.51
38267;BME280;24063;51.794;19.578;2023-02-10T00:08:46;99910.11;;;-3.03;75.62
38267;BME280;24063;51.794;19.578;2023-02-10T00:09:48;99914.14;;;-3.05;75.80
38267;BME280;24063;51.794;19.578;2023-02-10T00:10:48;99917.54;;;-3.05;75.68
38267;BME280;24063;51.794;19.578;2023-02-10T00:11:49;99915.30;;;-3.08;75.87
38267;BME280;24063;51.794;19.578;2023-02-10T00:13:02;99915.92;;;-3.09;75.98
38267;BME280;24063;51.794;19.578;2023-02-10T00:14:03;99911.23;;;-3.09;76.16
38267;BME280;24063;51.794;19.578;2023-02-10T00:15:05;99909.02;;;-3.10;76.08
38267;BME280;24063;51.794;19.578;2023-02-10T00:16:09;99914.27;;;-3.11;76.17
38267;BME280;24063;51.794;19.578;2023-02-10T00:17:10;99909.78;;;-3.12;76.09
38267;BME280;24063;51.794;19.578;2023-02-10T00:18:10;99912.42;;;-3.14;76.39
38267;BME280;24063;51.794;19.578;2023-02-10T00:19:11;99911.77;;;-3.16;76.32
38267;BME280;24063;51.794;19.578;2023-02-10T00:20:11;99908.66;;;-3.17;76.53
38267;BME280;24063;51.794;19.578;2023-02-10T00:21:16;99908.46;;;-3.18;76.67
38267;BME280;24063;51.794;19.578;2023-02-10T00:22:17;99905.23;;;-3.19;76.99
38267;BME280;24063;51.794;19.578;2023-02-10T00:23:17;99907.27;;;-3.19;76.94
38267;BME280;24063;51.794;19.578;2023-02-10T00:24:18;99906.13;;;-3.20;76.82
38267;BME280;24063;51.794;19.578;2023-02-10T00:25:19;99902.65;;;-3.20;76.79
38267;BME280;24063;51.794;19.578;2023-02-10T00:26:20;99902.91;;;-3.21;76.98
38267;BME280;24063;51.794;19.578;2023-02-10T00:27:20;99907.40;;;-3.22;76.95
38267;BME280;24063;51.794;19.578;2023-02-10T00:28:24;99905.48;;;-3.22;76.91
38267;BME280;24063;51.794;19.578;2023-02-10T00:29:25;99906.64;;;-3.23;77.19
38267;BME280;24063;51.794;19.578;2023-02-10T00:30:30;99904.31;;;-3.25;77.18
38267;BME280;24063;51.794;19.578;2023-02-10T00:31:31;99909.09;;;-3.25;77.25
38267;BME280;24063;51.794;19.578;2023-02-10T00:32:31;99906.25;;;-3.26;77.26
38267;BME280;24063;51.794;19.578;2023-02-10T00:33:32;99907.44;;;-3.26;77.43
38267;BME280;24063;51.794;19.578;2023-02-10T00:34:32;99909.41;;;-3.26;77.43
38267;BME280;24063;51.794;19.578;2023-02-10T00:35:33;99905.67;;;-3.28;77.44
38267;BME280;24063;51.794;19.578;2023-02-10T00:36:34;99903.38;;;-3.30;77.48
38267;BME280;24063;51.794;19.578;2023-02-10T00:37:35;99901.21;;;-3.31;77.62
38267;BME280;24063;51.794;19.578;2023-02-10T00:38:36;99903.48;;;-3.32;77.91
38267;BME280;24063;51.794;19.578;2023-02-10T00:39:37;99901.53;;;-3.34;77.99
38267;BME280;24063;51.794;19.578;2023-02-10T00:40:37;99900.00;;;-3.34;77.93
38267;BME280;24063;51.794;19.578;2023-02-10T00:41:38;99899.92;;;-3.35;78.19
38267;BME280;24063;51.794;19.578;2023-02-10T00:42:39;99897.91;;;-3.36;78.12
38267;BME280;24063;51.794;19.578;2023-02-10T00:43:40;99894.19;;;-3.38;78.11
38267;BME280;24063;51.794;19.578;2023-02-10T00:44:42;99894.64;;;-3.39;78.22
38267;BME280;24063;51.794;19.578;2023-02-10T00:45:43;99898.39;;;-3.39;78.43
38267;BME280;24063;51.794;19.578;2023-02-10T00:46:44;99896.45;;;-3.41;78.38
38267;BME280;24063;51.794;19.578;2023-02-10T00:47:44;99892.13;;;-3.44;78.56
38267;BME280;24063;51.794;19.578;2023-02-10T00:48:47;99895.92;;;-3.45;78.61
38267;BME280;24063;51.794;19.578;2023-02-10T00:49:48;99895.02;;;-3.46;78.64
38267;BME280;24063;51.794;19.578;2023-02-10T00:50:49;99892.65;;;-3.48;78.96
38267;BME280;24063;51.794;19.578;2023-02-10T00:51:49;99888.20;;;-3.48;78.90
38267;BME280;24063;51.794;19.578;2023-02-10T00:52:50;99882.57;;;-3.49;78.92
38267;BME280;24063;51.794;19.578;2023-02-10T00:53:50;99887.16;;;-3.49;79.02
38267;BME280;24063;51.794;19.578;2023-02-10T00:54:51;99888.23;;;-3.49;79.03
38267;BME280;24063;51.794;19.578;2023-02-10T00:55:52;99886.79;;;-3.49;79.05
38267;BME280;24063;51.794;19.578;2023-02-10T00:56:54;99888.25;;;-3.49;78.96
38267;BME280;24063;51.794;19.578;2023-02-10T00:57:54;99891.55;;;-3.50;79.10
38267;BME280;24063;51.794;19.578;2023-02-10T00:58:55;99888.59;;;-3.51;79.33
38267;BME280;24063;51.794;19.578;2023-02-10T00:59:56;99887.71;;;-3.51;79.34
38267;BME280;24063;51.794;19.578;2023-02-10T01:00:57;99884.15;;;-3.50;79.44
38267;BME280;24063;51.794;19.578;2023-02-10T01:01:58;99885.33;;;-3.52;79.38
38267;BME280;24063;51.794;19.578;2023-02-10T01:02:58;99880.42;;;-3.52;79.54
38267;BME280;24063;51.794;19.578;2023-02-10T01:03:59;99882.25;;;-3.52;79.59
38267;BME280;24063;51.794;19.578;2023-02-10T01:05:01;99878.75;;;-3.53;79.55
38267;BME280;24063;51.794;19.578;2023-02-10T01:06:04;99878.97;;;-3.53;79.46
38267;BME280;24063;51.794;19.578;2023-02-10T01:07:05;99875.77;;;-3.53;79.79
38267;BME280;24063;51.794;19.578;2023-02-10T01:08:06;99872.27;;;-3.53;79.87
38267;BME280;24063;51.794;19.578;2023-02-10T01:09:07;99879.51;;;-3.52;79.72
38267;BME280;24063;51.794;19.578;2023-02-10T01:10:07;99881.42;;;-3.51;79.98
38267;BME280;24063;51.794;19.578;2023-02-10T01:11:10;99884.63;;;-3.52;79.74
38267;BME280;24063;51.794;19.578;2023-02-10T01:12:10;99889.04;;;-3.52;79.66
38267;BME280;24063;51.794;19.578;2023-02-10T01:13:13;99890.92;;;-3.53;79.64
38267;BME280;24063;51.794;19.578;2023-02-10T01:14:14;99891.32;;;-3.53;79.64
38267;BME280;24063;51.794;19.578;2023-02-10T01:15:15;99887.95;;;-3.53;79.75
38267;BME280;24063;51.794;19.578;2023-02-10T01:16:16;99888.50;;;-3.55;79.75
38267;BME280;24063;51.794;19.578;2023-02-10T01:17:17;99889.70;;;-3.55;79.87
38267;BME280;24063;51.794;19.578;2023-02-10T01:18:17;99881.86;;;-3.54;79.88
38267;BME280;24063;51.794;19.578;2023-02-10T01:19:18;99885.57;;;-3.54;79.66
38267;BME280;24063;51.794;19.578;2023-02-10T01:20:18;99888.91;;;-3.54;79.79
38267;BME280;24063;51.794;19.578;2023-02-10T01:21:19;99884.26;;;-3.53;79.80
38267;BME280;24063;51.794;19.578;2023-02-10T01:22:21;99878.98;;;-3.53;79.93
38267;BME280;24063;51.794;19.578;2023-02-10T01:23:21;99878.23;;;-3.53;79.87
38267;BME280;24063;51.794;19.578;2023-02-10T01:24:22;99877.33;;;-3.53;79.90
38267;BME280;24063;51.794;19.578;2023-02-10T01:25:22;99873.27;;;-3.52;79.93
38267;BME280;24063;51.794;19.578;2023-02-10T01:26:23;99875.34;;;-3.52;79.81
38267;BME280;24063;51.794;19.578;2023-02-10T01:27:24;99871.56;;;-3.53;79.90
38267;BME280;24063;51.794;19.578;2023-02-10T01:28:25;99865.65;;;-3.54;79.84
38267;BME280;24063;51.794;19.578;2023-02-10T01:29:25;99865.84;;;-3.54;79.76
38267;BME280;24063;51.794;19.578;2023-02-10T01:30:26;99866.89;;;-3.56;80.20
38267;BME280;24063;51.794;19.578;2023-02-10T01:31:27;99865.44;;;-3.55;80.23
38267;BME280;24063;51.794;19.578;2023-02-10T01:32:28;99861.30;;;-3.56;80.12
38267;BME280;24063;51.794;19.578;2023-02-10T01:33:29;99858.66;;;-3.56;80.14
38267;BME280;24063;51.794;19.578;2023-02-10T01:34:30;99850.41;;;-3.58;80.25
38267;BME280;24063;51.794;19.578;2023-02-10T01:35:31;99854.81;;;-3.58;80.32
38267;BME280;24063;51.794;19.578;2023-02-10T01:36:31;99853.45;;;-3.59;80.25
38267;BME280;24063;51.794;19.578;2023-02-10T01:37:33;99853.32;;;-3.59;80.25
38267;BME280;24063;51.794;19.578;2023-02-10T01:38:34;99853.99;;;-3.61;80.26
38267;BME280;24063;51.794;19.578;2023-02-10T01:39:35;99853.17;;;-3.62;80.37
38267;BME280;24063;51.794;19.578;2023-02-10T01:40:36;99856.54;;;-3.62;80.34
38267;BME280;24063;51.794;19.578;2023-02-10T01:41:37;99858.05;;;-3.63;80.27
38267;BME280;24063;51.794;19.578;2023-02-10T01:42:37;99856.60;;;-3.62;80.38
38267;BME280;24063;51.794;19.578;2023-02-10T01:44:06;99857.02;;;-3.63;80.43
38267;BME280;24063;51.794;19.578;2023-02-10T01:46:16;99855.97;;;-3.63;80.49
38267;BME280;24063;51.794;19.578;2023-02-10T01:47:17;99852.63;;;-3.63;80.33
38267;BME280;24063;51.794;19.578;2023-02-10T01:48:18;99856.92;;;-3.64;80.52
38267;BME280;24063;51.794;19.578;2023-02-10T01:49:22;99852.45;;;-3.63;80.68
38267;BME280;24063;51.794;19.578;2023-02-10T01:50:52;99848.01;;;-3.63;80.59
38267;BME280;24063;51.794;19.578;2023-02-10T01:52:53;99843.85;;;-3.62;80.25
38267;BME280;24063;51.794;19.578;2023-02-10T01:53:54;99836.89;;;-3.61;80.25
38267;BME280;24063;51.794;19.578;2023-02-10T01:55:02;99840.69;;;-3.62;80.44
38267;BME280;24063;51.794;19.578;2023-02-10T01:56:04;99837.52;;;-3.62;80.13
38267;BME280;24063;51.794;19.578;2023-02-10T01:57:05;99836.35;;;-3.62;80.29
38267;BME280;24063;51.794;19.578;2023-02-10T01:58:10;99836.21;;;-3.63;80.19
38267;BME280;24063;51.794;19.578;2023-02-10T01:59:13;99836.94;;;-3.63;80.42
38267;BME280;24063;51.794;19.578;2023-02-10T02:00:14;99836.61;;;-3.63;80.27
38267;BME280;24063;51.794;19.578;2023-02-10T02:01:17;99831.48;;;-3.63;80.30
38267;BME280;24063;51.794;19.578;2023-02-10T02:02:18;99832.24;;;-3.64;80.28
38267;BME280;24063;51.794;19.578;2023-02-10T02:03:19;99833.80;;;-3.65;80.45
38267;BME280;24063;51.794;19.578;2023-02-10T02:04:20;99834.80;;;-3.66;80.43
38267;BME280;24063;51.794;19.578;2023-02-10T02:05:33;99832.21;;;-3.67;80.53
38267;BME280;24063;51.794;19.578;2023-02-10T02:06:35;99829.25;;;-3.67;80.62
38267;BME280;24063;51.794;19.578;2023-02-10T02:07:37;99822.73;;;-3.69;80.56
38267;BME280;24063;51.794;19.578;2023-02-10T02:08:39;99823.11;;;-3.69;80.75
38267;BME280;24063;51.794;19.578;2023-02-10T02:09:42;99821.63;;;-3.70;80.74
38267;BME280;24063;51.794;19.578;2023-02-10T02:13:57;99824.44;;;-3.68;80.87
38267;BME280;24063;51.794;19.578;2023-02-10T02:15:10;99821.02;;;-3.69;80.81
38267;BME280;24063;51.794;19.578;2023-02-10T02:19:12;99812.95;;;-3.71;80.76
38267;BME280;24063;51.794;19.578;2023-02-10T02:26:51;99819.06;;;-3.76;81.18
38267;BME280;24063;51.794;19.578;2023-02-10T02:30:55;99819.27;;;-3.80;81.29
38267;BME280;24063;51.794;19.578;2023-02-10T02:32:30;99816.77;;;-3.82;81.44
38267;BME280;24063;51.794;19.578;2023-02-10T02:33:43;99823.66;;;-3.84;81.50
38267;BME280;24063;51.794;19.578;2023-02-10T02:36:01;99826.45;;;-3.85;81.45
38267;BME280;24063;51.794;19.578;2023-02-10T02:37:19;99829.11;;;-3.85;81.62
38267;BME280;24063;51.794;19.578;2023-02-10T02:38:22;99838.13;;;-3.86;81.58
38267;BME280;24063;51.794;19.578;2023-02-10T02:39:23;99835.71;;;-3.86;81.65
38267;BME280;24063;51.794;19.578;2023-02-10T02:40:23;99835.88;;;-3.86;81.76
38267;BME280;24063;51.794;19.578;2023-02-10T02:41:24;99843.33;;;-3.87;81.53
38267;BME280;24063;51.794;19.578;2023-02-10T02:42:28;99845.65;;;-3.87;81.62
38267;BME280;24063;51.794;19.578;2023-02-10T02:43:29;99848.65;;;-3.87;81.72
38267;BME280;24063;51.794;19.578;2023-02-10T02:44:30;99845.73;;;-3.88;81.54
38267;BME280;24063;51.794;19.578;2023-02-10T02:47:00;99846.13;;;-3.87;81.67
38267;BME280;24063;51.794;19.578;2023-02-10T02:55:24;99852.73;;;-3.84;81.40
38267;BME280;24063;51.794;19.578;2023-02-10T02:57:55;99853.80;;;-3.84;81.22
38267;BME280;24063;51.794;19.578;2023-02-10T02:59:03;99857.00;;;-3.84;81.38
38267;BME280;24063;51.794;19.578;2023-02-10T03:00:28;99857.52;;;-3.86;81.16
38267;BME280;24063;51.794;19.578;2023-02-10T03:02:01;99854.90;;;-3.88;81.20
38267;BME280;24063;51.794;19.578;2023-02-10T03:03:04;99857.55;;;-3.88;81.24
38267;BME280;24063;51.794;19.578;2023-02-10T03:04:05;99860.48;;;-3.87;81.23
38267;BME280;24063;51.794;19.578;2023-02-10T03:05:08;99864.63;;;-3.87;81.16
38267;BME280;24063;51.794;19.578;2023-02-10T03:06:09;99864.57;;;-3.86;81.09
38267;BME280;24063;51.794;19.578;2023-02-10T03:07:09;99861.13;;;-3.85;80.95
38267;BME280;24063;51.794;19.578;2023-02-10T03:08:10;99863.90;;;-3.84;81.06
38267;BME280;24063;51.794;19.578;2023-02-10T03:09:10;99864.04;;;-3.83;80.79
38267;BME280;24063;51.794;19.578;2023-02-10T03:10:11;99865.02;;;-3.82;80.91
38267;BME280;24063;51.794;19.578;2023-02-10T03:11:11;99866.51;;;-3.81;80.77
38267;BME280;24063;51.794;19.578;2023-02-10T03:12:12;99865.58;;;-3.80;80.67
38267;BME280;24063;51.794;19.578;2023-02-10T03:13:12;99866.61;;;-3.80;80.58
38267;BME280;24063;51.794;19.578;2023-02-10T03:14:13;99866.80;;;-3.80;80.58
38267;BME280;24063;51.794;19.578;2023-02-10T03:15:14;99869.33;;;-3.81;80.50
38267;BME280;24063;51.794;19.578;2023-02-10T03:16:14;99866.23;;;-3.82;80.60
38267;BME280;24063;51.794;19.578;2023-02-10T03:17:15;99870.63;;;-3.82;80.57
38267;BME280;24063;51.794;19.578;2023-02-10T03:18:15;99867.85;;;-3.82;80.47
38267;BME280;24063;51.794;19.578;2023-02-10T03:19:17;99871.73;;;-3.84;80.53
38267;BME280;24063;51.794;19.578;2023-02-10T03:20:18;99863.34;;;-3.84;80.49
38267;BME280;24063;51.794;19.578;2023-02-10T03:21:19;99862.67;;;-3.85;80.69
38267;BME280;24063;51.794;19.578;2023-02-10T03:22:19;99862.56;;;-3.85;80.67
38267;BME280;24063;51.794;19.578;2023-02-10T03:23:20;99862.48;;;-3.86;80.58
38267;BME280;24063;51.794;19.578;2023-02-10T03:24:20;99862.58;;;-3.87;80.69
38267;BME280;24063;51.794;19.578;2023-02-10T03:25:21;99865.23;;;-3.89;80.77
38267;BME280;24063;51.794;19.578;2023-02-10T03:26:22;99862.55;;;-3.90;80.72
38267;BME280;24063;51.794;19.578;2023-02-10T03:27:24;99865.17;;;-3.91;80.82
38267;BME280;24063;51.794;19.578;2023-02-10T03:28:25;99866.80;;;-3.91;80.67
38267;BME280;24063;51.794;19.578;2023-02-10T03:29:26;99864.12;;;-3.92;80.85
38267;BME280;24063;51.794;19.578;2023-02-10T03:30:26;99857.00;;;-3.91;80.88
38267;BME280;24063;51.794;19.578;2023-02-10T03:31:27;99861.55;;;-3.91;80.85
38267;BME280;24063;51.794;19.578;2023-02-10T03:32:28;99859.25;;;-3.91;80.91
38267;BME280;24063;51.794;19.578;2023-02-10T03:33:28;99859.74;;;-3.90;81.13
38267;BME280;24063;51.794;19.578;2023-02-10T03:34:29;99861.39;;;-3.91;80.91
38267;BME280;24063;51.794;19.578;2023-02-10T03:35:29;99860.00;;;-3.91;80.85
38267;BME280;24063;51.794;19.578;2023-02-10T03:36:30;99857.25;;;-3.92;81.04
38267;BME280;24063;51.794;19.578;2023-02-10T03:37:30;99857.61;;;-3.92;81.06
38267;BME280;24063;51.794;19.578;2023-02-10T03:38:31;99855.13;;;-3.94;81.18
38267;BME280;24063;51.794;19.578;2023-02-10T03:39:31;99856.86;;;-3.94;81.11
38267;BME280;24063;51.794;19.578;2023-02-10T03:40:32;99853.09;;;-3.95;81.08
38267;BME280;24063;51.794;19.578;2023-02-10T03:41:33;99852.23;;;-3.95;81.19
38267;BME280;24063;51.794;19.578;2023-02-10T03:42:33;99849.39;;;-3.96;81.28
38267;BME280;24063;51.794;19.578;2023-02-10T03:43:33;99850.94;;;-3.96;81.27
38267;BME280;24063;51.794;19.578;2023-02-10T03:44:34;99856.62;;;-3.96;81.21
38267;BME280;24063;51.794;19.578;2023-02-10T03:45:37;99854.95;;;-3.97;81.30
38267;BME280;24063;51.794;19.578;2023-02-10T03:46:45;99847.91;;;-3.99;81.40
38267;BME280;24063;51.794;19.578;2023-02-10T03:47:45;99849.12;;;-4.01;81.36
38267;BME280;24063;51.794;19.578;2023-02-10T03:48:46;99847.48;;;-4.02;81.46
38267;BME280;24063;51.794;19.578;2023-02-10T03:49:47;99846.14;;;-4.05;81.60
38267;BME280;24063;51.794;19.578;2023-02-10T03:50:48;99850.59;;;-4.07;81.73
38267;BME280;24063;51.794;19.578;2023-02-10T03:51:48;99852.79;;;-4.09;81.80
38267;BME280;24063;51.794;19.578;2023-02-10T03:52:49;99854.95;;;-4.12;82.10
38267;BME280;24063;51.794;19.578;2023-02-10T03:53:49;99856.95;;;-4.13;82.12
38267;BME280;24063;51.794;19.578;2023-02-10T03:54:50;99858.19;;;-4.13;82.27
38267;BME280;24063;51.794;19.578;2023-02-10T03:55:50;99857.90;;;-4.13;82.24
38267;BME280;24063;51.794;19.578;2023-02-10T03:56:51;99854.79;;;-4.14;82.33
38267;BME280;24063;51.794;19.578;2023-02-10T03:57:52;99859.50;;;-4.15;82.31
38267;BME280;24063;51.794;19.578;2023-02-10T03:58:52;99858.33;;;-4.16;82.18
38267;BME280;24063;51.794;19.578;2023-02-10T03:59:53;99858.92;;;-4.17;82.26
38267;BME280;24063;51.794;19.578;2023-02-10T04:00:53;99854.27;;;-4.18;82.54
38267;BME280;24063;51.794;19.578;2023-02-10T04:01:54;99855.08;;;-4.19;82.56
38267;BME280;24063;51.794;19.578;2023-02-10T04:02:55;99856.38;;;-4.20;82.72
38267;BME280;24063;51.794;19.578;2023-02-10T04:03:56;99858.38;;;-4.20;82.86
38267;BME280;24063;51.794;19.578;2023-02-10T04:05:01;99863.55;;;-4.21;82.86
38267;BME280;24063;51.794;19.578;2023-02-10T04:06:02;99864.39;;;-4.21;82.92
38267;BME280;24063;51.794;19.578;2023-02-10T04:07:03;99862.69;;;-4.21;82.90
38267;BME280;24063;51.794;19.578;2023-02-10T04:08:05;99865.31;;;-4.21;83.15
38267;BME280;24063;51.794;19.578;2023-02-10T04:09:11;99862.36;;;-4.22;83.02
38267;BME280;24063;51.794;19.578;2023-02-10T04:10:12;99862.66;;;-4.22;82.89
38267;BME280;24063;51.794;19.578;2023-02-10T04:11:12;99863.65;;;-4.22;82.92
38267;BME280;24063;51.794;19.578;2023-02-10T04:12:13;99861.09;;;-4.23;83.06
38267;BME280;24063;51.794;19.578;2023-02-10T04:13:16;99860.66;;;-4.24;83.23
38267;BME280;24063;51.794;19.578;2023-02-10T04:14:17;99857.45;;;-4.25;83.04
38267;BME280;24063;51.794;19.578;2023-02-10T04:15:18;99853.84;;;-4.26;83.16
38267;BME280;24063;51.794;19.578;2023-02-10T04:16:18;99854.32;;;-4.27;83.31
38267;BME280;24063;51.794;19.578;2023-02-10T04:17:21;99860.72;;;-4.28;83.15
38267;BME280;24063;51.794;19.578;2023-02-10T04:18:21;99856.41;;;-4.29;83.52
38267;BME280;24063;51.794;19.578;2023-02-10T04:19:22;99855.24;;;-4.28;83.34
38267;BME280;24063;51.794;19.578;2023-02-10T04:20:24;99854.65;;;-4.27;83.22
38267;BME280;24063;51.794;19.578;2023-02-10T04:21:24;99854.85;;;-4.27;83.40
38267;BME280;24063;51.794;19.578;2023-02-10T04:22:25;99853.48;;;-4.28;83.39
38267;BME280;24063;51.794;19.578;2023-02-10T04:23:25;99854.55;;;-4.28;83.34
38267;BME280;24063;51.794;19.578;2023-02-10T04:24:26;99851.38;;;-4.28;83.35
38267;BME280;24063;51.794;19.578;2023-02-10T04:25:27;99856.19;;;-4.28;83.47
38267;BME280;24063;51.794;19.578;2023-02-10T04:26:27;99855.11;;;-4.28;83.34
38267;BME280;24063;51.794;19.578;2023-02-10T04:27:28;99857.16;;;-4.29;83.57
38267;BME280;24063;51.794;19.578;2023-02-10T04:28:29;99858.98;;;-4.30;83.49
38267;BME280;24063;51.794;19.578;2023-02-10T04:29:29;99860.89;;;-4.30;83.63
38267;BME280;24063;51.794;19.578;2023-02-10T04:30:30;99862.13;;;-4.30;83.48
38267;BME280;24063;51.794;19.578;2023-02-10T04:31:31;99858.16;;;-4.31;83.48
38267;BME280;24063;51.794;19.578;2023-02-10T04:32:31;99865.60;;;-4.31;83.58
38267;BME280;24063;51.794;19.578;2023-02-10T04:33:32;99864.77;;;-4.32;83.62
38267;BME280;24063;51.794;19.578;2023-02-10T04:34:32;99861.39;;;-4.33;83.52
38267;BME280;24063;51.794;19.578;2023-02-10T04:35:33;99866.76;;;-4.34;83.68
38267;BME280;24063;51.794;19.578;2023-02-10T04:36:33;99862.12;;;-4.35;83.53
38267;BME280;24063;51.794;19.578;2023-02-10T04:37:34;99864.88;;;-4.37;83.61
38267;BME280;24063;51.794;19.578;2023-02-10T04:38:35;99866.77;;;-4.38;83.61
38267;BME280;24063;51.794;19.578;2023-02-10T04:39:35;99864.57;;;-4.37;83.92
38267;BME280;24063;51.794;19.578;2023-02-10T04:40:36;99865.63;;;-4.37;83.85
38267;BME280;24063;51.794;19.578;2023-02-10T04:41:36;99863.30;;;-4.37;83.79
38267;BME280;24063;51.794;19.578;2023-02-10T04:42:37;99864.19;;;-4.37;83.77
38267;BME280;24063;51.794;19.578;2023-02-10T04:43:38;99865.09;;;-4.35;83.69
38267;BME280;24063;51.794;19.578;2023-02-10T04:44:39;99864.49;;;-4.34;83.59
38267;BME280;24063;51.794;19.578;2023-02-10T04:45:40;99865.75;;;-4.32;83.56
38267;BME280;24063;51.794;19.578;2023-02-10T04:46:40;99868.05;;;-4.31;83.67
38267;BME280;24063;51.794;19.578;2023-02-10T04:47:41;99869.60;;;-4.29;83.47
38267;BME280;24063;51.794;19.578;2023-02-10T04:48:42;99867.77;;;-4.28;83.41
38267;BME280;24063;51.794;19.578;2023-02-10T04:49:42;99867.50;;;-4.27;83.20
38267;BME280;24063;51.794;19.578;2023-02-10T04:50:43;99867.77;;;-4.26;83.20
38267;BME280;24063;51.794;19.578;2023-02-10T04:51:44;99871.92;;;-4.26;83.04
38267;BME280;24063;51.794;19.578;2023-02-10T04:52:44;99869.71;;;-4.26;83.07
38267;BME280;24063;51.794;19.578;2023-02-10T04:53:45;99871.77;;;-4.26;83.15
38267;BME280;24063;51.794;19.578;2023-02-10T04:54:47;99871.71;;;-4.27;82.88
38267;BME280;24063;51.794;19.578;2023-02-10T04:55:48;99866.94;;;-4.27;82.94
38267;BME280;24063;51.794;19.578;2023-02-10T04:56:49;99873.98;;;-4.25;82.92
38267;BME280;24063;51.794;19.578;2023-02-10T04:57:49;99871.00;;;-4.23;83.07
38267;BME280;24063;51.794;19.578;2023-02-10T04:58:50;99872.00;;;-4.21;83.04
38267;BME280;24063;51.794;19.578;2023-02-10T04:59:51;99870.48;;;-4.18;83.23
38267;BME280;24063;51.794;19.578;2023-02-10T05:00:54;99872.45;;;-4.14;82.95
38267;BME280;24063;51.794;19.578;2023-02-10T05:01:55;99873.52;;;-4.13;82.95
38267;BME280;24063;51.794;19.578;2023-02-10T05:02:56;99873.73;;;-4.11;82.75
38267;BME280;24063;51.794;19.578;2023-02-10T05:03:57;99872.89;;;-4.10;82.94
38267;BME280;24063;51.794;19.578;2023-02-10T05:04:58;99876.65;;;-4.09;82.76
38267;BME280;24063;51.794;19.578;2023-02-10T05:06:08;99873.27;;;-4.08;82.54
38267;BME280;24063;51.794;19.578;2023-02-10T05:07:09;99876.39;;;-4.06;82.63
38267;BME280;24063;51.794;19.578;2023-02-10T05:08:10;99876.27;;;-4.03;82.37
38267;BME280;24063;51.794;19.578;2023-02-10T05:09:11;99878.30;;;-4.01;82.43
38267;BME280;24063;51.794;19.578;2023-02-10T05:10:11;99878.25;;;-3.98;82.19
38267;BME280;24063;51.794;19.578;2023-02-10T05:11:14;99875.61;;;-3.96;81.98
38267;BME280;24063;51.794;19.578;2023-02-10T05:12:15;99868.48;;;-3.94;82.13
38267;BME280;24063;51.794;19.578;2023-02-10T05:13:15;99862.38;;;-3.92;81.91
38267;BME280;24063;51.794;19.578;2023-02-10T05:14:15;99859.25;;;-3.91;81.83
38267;BME280;24063;51.794;19.578;2023-02-10T05:15:16;99852.16;;;-3.89;81.70
38267;BME280;24063;51.794;19.578;2023-02-10T05:16:17;99849.33;;;-3.88;81.34
38267;BME280;24063;51.794;19.578;2023-02-10T05:17:18;99845.13;;;-3.89;81.39
38267;BME280;24063;51.794;19.578;2023-02-10T05:18:18;99846.90;;;-3.89;81.27
38267;BME280;24063;51.794;19.578;2023-02-10T05:19:19;99844.63;;;-3.91;81.40
38267;BME280;24063;51.794;19.578;2023-02-10T05:20:19;99843.99;;;-3.91;81.28
38267;BME280;24063;51.794;19.578;2023-02-10T05:21:20;99844.52;;;-3.92;81.38
38267;BME280;24063;51.794;19.578;2023-02-10T05:22:21;99848.81;;;-3.91;81.25
38267;BME280;24063;51.794;19.578;2023-02-10T05:23:26;99851.06;;;-3.90;81.32
38267;BME280;24063;51.794;19.578;2023-02-10T05:24:27;99848.23;;;-3.88;81.54
38267;BME280;24063;51.794;19.578;2023-02-10T05:25:27;99849.96;;;-3.88;81.24
38267;BME280;24063;51.794;19.578;2023-02-10T05:26:28;99851.03;;;-3.86;81.53
38267;BME280;24063;51.794;19.578;2023-02-10T05:27:29;99855.41;;;-3.86;81.67
38267;BME280;24063;51.794;19.578;2023-02-10T05:28:29;99858.34;;;-3.85;81.67
38267;BME280;24063;51.794;19.578;2023-02-10T05:29:30;99861.21;;;-3.86;81.62
38267;BME280;24063;51.794;19.578;2023-02-10T05:30:31;99865.38;;;-3.85;81.76
38267;BME280;24063;51.794;19.578;2023-02-10T05:31:34;99866.31;;;-3.84;81.71
38267;BME280;24063;51.794;19.578;2023-02-10T05:32:34;99866.92;;;-3.83;81.77
38267;BME280;24063;51.794;19.578;2023-02-10T05:33:35;99869.04;;;-3.81;81.69
38267;BME280;24063;51.794;19.578;2023-02-10T05:34:36;99864.96;;;-3.79;81.52
38267;BME280;24063;51.794;19.578;2023-02-10T05:35:37;99867.08;;;-3.75;81.75
38267;BME280;24063;51.794;19.578;2023-02-10T05:36:37;99867.54;;;-3.73;81.44
38267;BME280;24063;51.794;19.578;2023-02-10T05:37:38;99870.50;;;-3.71;81.34
38267;BME280;24063;51.794;19.578;2023-02-10T05:38:38;99870.55;;;-3.68;81.23
38267;BME280;24063;51.794;19.578;2023-02-10T05:39:59;99872.17;;;-3.65;81.16
38267;BME280;24063;51.794;19.578;2023-02-10T05:41:00;99869.64;;;-3.62;81.25
38267;BME280;24063;51.794;19.578;2023-02-10T05:42:01;99865.76;;;-3.60;81.05
38267;BME280;24063;51.794;19.578;2023-02-10T05:43:02;99867.27;;;-3.58;80.97
38267;BME280;24063;51.794;19.578;2023-02-10T05:44:06;99867.62;;;-3.56;80.88
38267;BME280;24063;51.794;19.578;2023-02-10T05:45:07;99869.15;;;-3.54;81.07
38267;BME280;24063;51.794;19.578;2023-02-10T05:46:08;99874.25;;;-3.52;80.67
38267;BME280;24063;51.794;19.578;2023-02-10T05:47:08;99871.48;;;-3.51;80.94
38267;BME280;24063;51.794;19.578;2023-02-10T05:48:09;99874.84;;;-3.49;80.66
38267;BME280;24063;51.794;19.578;2023-02-10T05:49:10;99875.23;;;-3.48;80.52
38267;BME280;24063;51.794;19.578;2023-02-10T05:50:10;99879.71;;;-3.47;80.65
38267;BME280;24063;51.794;19.578;2023-02-10T05:51:11;99879.73;;;-3.45;80.26
38267;BME280;24063;51.794;19.578;2023-02-10T05:52:12;99887.21;;;-3.44;80.23
38267;BME280;24063;51.794;19.578;2023-02-10T05:53:13;99883.60;;;-3.43;80.25